Park, Pennsylvania
Current Conditions -  °F | °C
As of 12:15 AM on Sunday 26 Oct 2014 (Local Time) from KIDI Reporting Station
Few Clouds Few Clouds  
Wind Chill: 59°   Ceiling: Unl
Heat Index: 59°   Visibility: 10mi
Dew Point: 37°   Wind: 20mph
Humidity: 45%   Direction: 310°NW
Pressure: 29.77"   Gusts: 28mph
Location:  40.6397°N, 79.5445°W
Report Text: KIDI 260415Z AUTO 31017G24KT 10SM FEW050 15/03 A2977 RMK A01
Loading
Personal Weather Stations






























Interactive Weather Map
Tropical Storm Tracking
New forecast layout! Learn more

10-Day Weather Forecast

Advertisements
Track Severe Weather on mobile